EGPE/INV METAR and TAF weather

Enter ICAO airport designator
Station Type Date Time Source
EGPE METAR 2021/08/04 19:20 UTC NOAA

EGPE 041920Z VRB02KT 9999 VCSH FEW034CB SCT048 17/15 Q1006


Station Type Date Time Source
EGPE Decoded METAR 2021/08/04 19:20 UTC NOAA

Inverness / Dalcross, United Kingdom (EGPE) 57-32N 004-03W 0M
Aug 04, 2021 - 03:20 PM EDT / 2021.08.04 1920 UTC
Wind: Variable at 2 MPH (2 KT):0
Visibility: greater than 7 mile(s):0
Sky conditions: partly cloudy
Weather: showers in the vicinity; Cumulonimbus clouds observed
Temperature: 62 F (17 C)
Dew Point: 59 F (15 C)
Relative Humidity: 88%
Pressure (altimeter): 29.71 in. Hg (1006 hPa)
ob: EGPE 041920Z VRB02KT 9999 VCSH FEW034CB SCT048 17/15 Q1006
cycle: 19

Station Type Date Time Source
EGPE TAF UTC NOAA

Error!

Example: see airport list